createdAt,value
2023-02-04T00:00:58.861Z,1.13
2023-02-04T00:06:11.716Z,1.19
2023-02-04T00:11:19.062Z,1.26
2023-02-04T00:16:26.316Z,1.30
2023-02-04T00:21:33.692Z,1.35
2023-02-04T00:26:41.411Z,1.41
2023-02-04T00:31:48.887Z,1.45
2023-02-04T00:36:56.707Z,1.49
2023-02-04T00:42:05.988Z,1.55
2023-02-04T00:47:13.303Z,1.61
2023-02-04T00:52:20.390Z,1.63
2023-02-04T00:57:27.895Z,1.65
2023-02-04T01:02:34.987Z,1.68
2023-02-04T01:07:40.613Z,1.70
2023-02-04T01:12:47.979Z,1.71
2023-02-04T01:17:55.698Z,1.75
2023-02-04T01:23:02.898Z,1.76
2023-02-04T01:28:10.713Z,1.76
2023-02-04T01:33:17.877Z,1.76
2023-02-04T01:38:23.449Z,1.76
2023-02-04T01:43:31.389Z,1.74
2023-02-04T01:59:46.876Z,1.76
2023-02-04T02:04:54.373Z,1.74
2023-02-04T02:10:01.833Z,1.71
2023-02-04T02:15:11.582Z,1.70
2023-02-04T02:20:21.815Z,1.68
2023-02-04T02:25:29.916Z,1.67
2023-02-04T02:30:37.566Z,1.70
2023-02-04T02:35:48.684Z,1.71
2023-02-04T02:40:57.816Z,1.73
2023-02-04T02:46:05.559Z,1.75
2023-02-04T02:51:13.299Z,1.74
2023-02-04T02:56:21.620Z,1.73
2023-02-04T03:01:29.508Z,1.69
2023-02-04T03:06:37.008Z,1.65
2023-02-04T03:11:44.781Z,1.60
2023-02-04T03:16:53.247Z,1.54
2023-02-04T03:22:01.692Z,1.48
2023-02-04T03:27:10.413Z,1.47
2023-02-04T03:32:17.627Z,1.42
2023-02-04T03:37:23.132Z,1.37
2023-02-04T03:42:31.484Z,1.33
2023-02-04T03:47:39.112Z,1.24
2023-02-04T03:52:46.609Z,1.17
2023-02-04T03:57:53.977Z,1.07
2023-02-04T04:03:01.871Z,0.99
2023-02-04T04:08:09.651Z,0.93
2023-02-04T04:13:18.478Z,0.85
2023-02-04T04:18:25.772Z,0.81
2023-02-04T04:23:31.335Z,0.74
2023-02-04T04:28:38.757Z,0.65
2023-02-04T04:33:46.190Z,0.52
2023-02-04T04:38:53.461Z,0.31
2023-02-04T04:43:58.899Z,0.07
2023-02-04T04:49:06.002Z,-0.15
2023-02-04T04:54:11.688Z,-0.34
2023-02-04T04:59:19.085Z,-0.51
2023-02-04T05:04:26.432Z,-0.68
2023-02-04T05:09:33.699Z,-0.77
2023-02-04T05:19:07.992Z,-0.91
2023-02-04T05:24:16.256Z,-1.07
2023-02-04T05:29:24.587Z,-1.24
2023-02-04T05:34:32.605Z,-1.36
2023-02-04T05:39:40.655Z,-1.41
2023-02-04T05:44:49.003Z,-1.48
2023-02-04T05:49:57.694Z,-1.53
2023-02-04T05:55:08.054Z,-1.60
2023-02-04T06:00:19.498Z,-1.65
2023-02-04T06:05:27.833Z,-1.68
2023-02-04T06:10:35.826Z,-1.71
2023-02-04T06:15:45.282Z,-1.72
2023-02-04T06:20:57.205Z,-1.76
2023-02-04T06:26:06.032Z,-1.78
2023-02-04T06:31:30.743Z,-1.78
2023-02-04T06:36:57.035Z,-1.81
2023-02-04T06:42:36.780Z,-1.81
2023-02-04T06:47:40.744Z,-1.84
2023-02-04T06:52:45.725Z,-1.80
2023-02-04T06:57:49.666Z,-1.80
2023-02-04T07:02:53.574Z,-1.78
2023-02-04T07:07:57.941Z,-1.77
2023-02-04T07:13:01.871Z,-1.78
2023-02-04T07:18:06.513Z,-1.77
2023-02-04T07:23:10.356Z,-1.78
2023-02-04T07:28:14.548Z,-1.78
2023-02-04T07:33:18.605Z,-1.75
2023-02-04T07:38:22.332Z,-1.76
2023-02-04T07:43:26.457Z,-1.74
2023-02-04T07:48:30.265Z,-1.75
2023-02-04T07:53:34.175Z,-1.75
2023-02-04T07:58:38.142Z,-1.72
2023-02-04T08:03:42.750Z,-1.66
2023-02-04T08:08:46.773Z,-1.64
2023-02-04T08:13:50.600Z,-1.66
2023-02-04T08:18:54.431Z,-1.68
2023-02-04T08:23:58.452Z,-1.71
2023-02-04T08:29:02.472Z,-1.67
2023-02-04T08:34:07.211Z,-1.60
2023-02-04T08:39:12.053Z,-1.57
2023-02-04T08:44:16.294Z,-1.55
2023-02-04T08:49:20.246Z,-1.55
2023-02-04T08:54:25.781Z,-1.53
2023-02-04T08:59:30.078Z,-1.56
2023-02-04T09:04:34.765Z,-1.54
2023-02-04T09:09:38.690Z,-1.48
2023-02-04T09:14:42.915Z,-1.39
2023-02-04T09:19:46.744Z,-1.32
2023-02-04T09:24:50.884Z,-1.24
2023-02-04T09:29:54.926Z,-1.17
2023-02-04T09:34:58.761Z,-1.08
2023-02-04T09:40:03.303Z,-1.06
2023-02-04T09:45:14.968Z,-1.01
2023-02-04T09:50:22.018Z,-0.94
2023-02-04T09:55:28.645Z,-0.80
2023-02-04T10:00:34.526Z,-0.74
2023-02-04T10:05:40.219Z,-0.84
2023-02-04T10:10:45.627Z,-0.90
2023-02-04T10:15:52.460Z,-0.92
2023-02-04T10:21:03.530Z,-1.03
2023-02-04T10:26:09.880Z,-1.15
2023-02-04T10:31:33.429Z,-1.28
2023-02-04T10:36:38.115Z,-1.33
2023-02-04T10:41:49.667Z,-1.29
2023-02-04T10:47:00.771Z,-1.22
2023-02-04T10:52:16.487Z,-1.13
2023-02-04T10:57:23.353Z,-1.00
2023-02-04T11:02:45.481Z,-1.01
2023-02-04T11:07:50.382Z,-1.00
2023-02-04T11:13:04.760Z,-0.94
2023-02-04T11:18:10.898Z,-0.85
2023-02-04T11:23:33.410Z,-0.80
2023-02-04T11:28:55.635Z,-0.86
2023-02-04T11:34:13.324Z,-0.83
2023-02-04T11:39:18.878Z,-0.80
2023-02-04T11:44:24.847Z,-0.86
2023-02-04T11:49:28.792Z,-0.95
2023-02-04T11:54:32.592Z,-1.14
2023-02-04T11:59:36.318Z,-1.24
2023-02-04T12:04:50.261Z,-1.30
2023-02-04T12:09:54.882Z,-1.36
2023-02-04T12:15:05.257Z,-1.44
2023-02-04T12:20:11.607Z,-1.41
2023-02-04T12:25:17.678Z,-1.30
2023-02-04T12:30:22.081Z,-1.30
2023-02-04T12:35:26.251Z,-1.42
2023-02-04T12:40:30.424Z,-1.50
2023-02-04T12:45:34.757Z,-1.47
2023-02-04T12:50:39.509Z,-1.47
2023-02-04T12:55:43.474Z,-1.52
2023-02-04T13:00:47.672Z,-1.57
2023-02-04T13:05:52.119Z,-1.66
2023-02-04T13:10:55.781Z,-1.72
2023-02-04T13:16:00.037Z,-1.81
2023-02-04T13:21:04.417Z,-1.85
2023-02-04T13:26:08.950Z,-1.84
2023-02-04T13:31:13.006Z,-1.80
2023-02-04T13:36:16.959Z,-1.76
2023-02-04T13:41:20.949Z,-1.73
2023-02-04T13:46:25.701Z,-1.70
2023-02-04T13:51:30.255Z,-1.67
2023-02-04T13:56:34.609Z,-1.64
2023-02-04T14:01:38.728Z,-1.58
2023-02-04T14:06:43.250Z,-1.51
2023-02-04T14:11:47.225Z,-1.54
2023-02-04T14:16:51.455Z,-1.58
2023-02-04T14:21:55.345Z,-1.59
2023-02-04T14:27:00.998Z,-1.60
2023-02-04T14:32:05.995Z,-1.60
2023-02-04T14:37:10.261Z,-1.63
2023-02-04T14:42:14.399Z,-1.66
2023-02-04T14:47:18.127Z,-1.70
2023-02-04T14:52:22.169Z,-1.73
2023-02-04T14:57:26.379Z,-1.77
2023-02-04T15:02:30.583Z,-1.79
2023-02-04T15:07:34.447Z,-1.84
2023-02-04T15:12:38.464Z,-1.91
2023-02-04T15:17:42.996Z,-2.00
2023-02-04T15:22:51.264Z,-2.05
2023-02-04T15:27:56.263Z,-2.06
2023-02-04T15:33:00.336Z,-2.05
2023-02-04T15:38:04.967Z,-2.07
2023-02-04T15:43:10.263Z,-2.12
2023-02-04T15:48:15.149Z,-2.19
2023-02-04T15:53:19.682Z,-2.25
2023-02-04T15:58:23.635Z,-2.30
2023-02-04T16:03:27.792Z,-2.32
2023-02-04T16:08:31.726Z,-2.31
2023-02-04T16:13:36.447Z,-2.29
2023-02-04T16:18:41.472Z,-2.32
2023-02-04T16:23:46.914Z,-2.36
2023-02-04T16:28:50.957Z,-2.37
2023-02-04T16:33:54.896Z,-2.36
2023-02-04T16:38:59.678Z,-2.37
2023-02-04T16:44:03.673Z,-2.40
2023-02-04T16:49:08.167Z,-2.42
2023-02-04T16:54:12.019Z,-2.44
2023-02-04T16:59:16.140Z,-2.46
2023-02-04T17:04:20.179Z,-2.43
2023-02-04T17:09:23.834Z,-2.41
2023-02-04T17:14:27.669Z,-2.42
2023-02-04T17:19:31.907Z,-2.42
2023-02-04T17:24:42.099Z,-2.42
2023-02-04T17:29:45.952Z,-2.41
2023-02-04T17:34:50.321Z,-2.42
2023-02-04T17:39:54.473Z,-2.45
2023-02-04T17:44:58.463Z,-2.46
2023-02-04T17:50:05.238Z,-2.51
2023-02-04T17:55:18.756Z,-2.54
2023-02-04T18:00:26.012Z,-2.60
2023-02-04T18:05:30.890Z,-2.66
2023-02-04T18:10:37.320Z,-2.70
2023-02-04T18:15:42.518Z,-2.74
2023-02-04T18:20:47.326Z,-2.83
2023-02-04T18:25:51.214Z,-2.89
2023-02-04T18:30:59.308Z,-2.92
2023-02-04T18:36:03.106Z,-2.92
2023-02-04T18:41:33.334Z,-2.90
2023-02-04T18:46:42.088Z,-2.89
2023-02-04T18:51:47.610Z,-2.91
2023-02-04T18:56:52.935Z,-2.92
2023-02-04T19:01:57.369Z,-2.92
2023-02-04T19:07:05.862Z,-2.89
2023-02-04T19:12:21.325Z,-2.84
2023-02-04T19:17:27.848Z,-2.80
2023-02-04T19:22:43.522Z,-2.79
2023-02-04T19:27:51.172Z,-2.79
2023-02-04T19:32:56.956Z,-2.80
2023-02-04T19:38:12.546Z,-2.82
2023-02-04T19:43:23.008Z,-2.81
2023-02-04T19:48:33.635Z,-2.79
2023-02-04T19:53:37.829Z,-2.78
2023-02-04T19:58:43.214Z,-2.77
2023-02-04T20:03:48.679Z,-2.76
2023-02-04T20:08:56.482Z,-2.76
2023-02-04T20:14:19.354Z,-2.77
2023-02-04T20:19:28.513Z,-2.78
2023-02-04T20:24:36.517Z,-2.77
2023-02-04T20:29:43.115Z,-2.79
2023-02-04T20:34:47.159Z,-2.78
2023-02-04T20:39:51.715Z,-2.77
2023-02-04T20:45:09.586Z,-2.76
2023-02-04T20:50:42.592Z,-2.76
2023-02-04T20:55:50.450Z,-2.79
2023-02-04T21:00:55.423Z,-2.81
2023-02-04T21:06:01.079Z,-2.86
2023-02-04T21:11:05.599Z,-2.84
2023-02-04T21:16:09.659Z,-2.80
2023-02-04T21:21:14.550Z,-2.85
2023-02-04T21:26:19.810Z,-2.96
2023-02-04T21:31:24.013Z,-3.08
2023-02-04T21:36:28.050Z,-3.12
2023-02-04T21:41:31.786Z,-3.14
2023-02-04T21:46:35.565Z,-3.15
2023-02-04T21:51:39.493Z,-3.17
2023-02-04T21:56:43.618Z,-3.21
2023-02-04T22:01:47.616Z,-3.21
2023-02-04T22:06:51.580Z,-3.24
2023-02-04T22:11:55.440Z,-3.31
2023-02-04T22:16:59.521Z,-3.36
2023-02-04T22:22:03.728Z,-3.41
2023-02-04T22:27:07.737Z,-3.44
2023-02-04T22:32:11.652Z,-3.47
2023-02-04T22:37:15.907Z,-3.53
2023-02-04T22:42:19.731Z,-3.58
2023-02-04T22:47:23.534Z,-3.58
2023-02-04T22:52:27.436Z,-3.60
2023-02-04T22:57:31.147Z,-3.62
2023-02-04T23:02:34.856Z,-3.63
2023-02-04T23:07:38.741Z,-3.62
2023-02-04T23:12:42.609Z,-3.62
2023-02-04T23:20:09.024Z,-3.63
2023-02-04T23:25:16.824Z,-3.67
2023-02-04T23:30:25.506Z,-3.71
2023-02-04T23:35:33.524Z,-3.79
2023-02-04T23:40:41.028Z,-3.90
2023-02-04T23:45:49.717Z,-3.97
2023-02-04T23:50:58.506Z,-4.02
2023-02-04T23:56:06.697Z,-4.06
